createdAt,value
2023-01-25T00:00:48.222Z,5.12
2023-01-25T00:03:17.369Z,5.14
2023-01-25T00:05:45.140Z,5.15
2023-01-25T00:08:12.808Z,5.12
2023-01-25T00:10:40.615Z,5.14
2023-01-25T00:13:08.301Z,5.15
2023-01-25T00:15:36.072Z,5.15
2023-01-25T00:18:03.876Z,5.12
2023-01-25T00:20:33.006Z,5.14
2023-01-25T00:23:00.782Z,5.11
2023-01-25T00:25:28.589Z,5.11
2023-01-25T00:27:56.353Z,5.14
2023-01-25T00:30:24.124Z,5.11
2023-01-25T00:32:58.824Z,5.12
2023-01-25T00:35:32.384Z,5.09
2023-01-25T00:38:03.629Z,5.09
2023-01-25T00:40:31.446Z,5.09
2023-01-25T00:43:01.087Z,5.09
2023-01-25T00:45:28.784Z,5.07
2023-01-25T00:47:57.062Z,5.03
2023-01-25T00:50:25.703Z,5.03
2023-01-25T00:52:53.658Z,5.02
2023-01-25T00:55:22.828Z,5.09
2023-01-25T00:57:50.573Z,5.09
2023-01-25T01:00:19.020Z,5.15
2023-01-25T01:02:47.802Z,5.10
2023-01-25T01:05:15.840Z,5.05
2023-01-25T01:07:44.377Z,5.04
2023-01-25T01:10:13.595Z,4.99
2023-01-25T01:12:42.700Z,5.01
2023-01-25T01:15:11.014Z,5.03
2023-01-25T01:17:39.003Z,5.01
2023-01-25T01:20:08.163Z,4.99
2023-01-25T01:22:35.992Z,5.06
2023-01-25T01:25:03.794Z,5.05
2023-01-25T01:27:31.771Z,5.04
2023-01-25T01:30:00.942Z,4.95
2023-01-25T01:32:29.010Z,5.08
2023-01-25T01:34:56.926Z,5.09
2023-01-25T01:37:24.721Z,5.08
2023-01-25T01:39:53.202Z,5.08
2023-01-25T01:42:21.065Z,5.05
2023-01-25T01:44:52.034Z,5.06
2023-01-25T01:47:26.221Z,5.04
2023-01-25T01:50:03.896Z,5.06
2023-01-25T01:52:38.319Z,5.05
2023-01-25T01:55:10.498Z,5.04
2023-01-25T01:57:44.466Z,5.03
2023-01-25T02:00:16.708Z,4.93
2023-01-25T02:02:47.619Z,4.87
2023-01-25T02:05:20.343Z,5.02
2023-01-25T02:07:50.715Z,5.04
2023-01-25T02:10:21.788Z,5.05
2023-01-25T02:12:51.877Z,5.01
2023-01-25T02:15:19.685Z,5.03
2023-01-25T02:17:50.063Z,5.03
2023-01-25T02:20:25.264Z,5.03
2023-01-25T02:23:00.851Z,4.90
2023-01-25T02:25:30.125Z,5.02
2023-01-25T02:28:10.417Z,5.03
2023-01-25T02:30:38.796Z,5.03
2023-01-25T02:33:06.586Z,5.04
2023-01-25T02:35:40.447Z,5.00
2023-01-25T02:38:09.308Z,5.05
2023-01-25T02:40:46.497Z,5.02
2023-01-25T02:43:15.052Z,5.04
2023-01-25T02:45:46.841Z,5.06
2023-01-25T02:48:14.633Z,4.99
2023-01-25T02:50:42.469Z,4.95
2023-01-25T02:53:11.995Z,4.94
2023-01-25T02:55:41.156Z,4.97
2023-01-25T02:58:09.604Z,4.97
2023-01-25T03:00:37.621Z,4.95
2023-01-25T03:03:05.470Z,5.01
2023-01-25T03:05:34.584Z,4.95
2023-01-25T03:08:02.601Z,5.00
2023-01-25T03:10:30.362Z,4.98
2023-01-25T03:13:00.418Z,4.95
2023-01-25T03:15:28.702Z,4.95
2023-01-25T03:17:56.866Z,4.99
2023-01-25T03:20:24.873Z,4.94
2023-01-25T03:22:53.116Z,4.98
2023-01-25T03:25:21.334Z,4.95
2023-01-25T03:27:58.178Z,4.99
2023-01-25T03:30:27.647Z,5.01
2023-01-25T03:32:55.703Z,5.00
2023-01-25T03:35:24.320Z,5.00
2023-01-25T03:37:52.832Z,4.98
2023-01-25T03:40:20.674Z,5.03
2023-01-25T03:42:52.185Z,4.95
2023-01-25T03:45:20.121Z,4.94
2023-01-25T03:47:49.780Z,4.92
2023-01-25T03:50:17.723Z,4.93
2023-01-25T03:53:27.384Z,4.96
2023-01-25T03:55:58.477Z,4.94
2023-01-25T03:58:27.328Z,4.90
2023-01-25T04:00:56.842Z,4.94
2023-01-25T04:03:26.625Z,4.90
2023-01-25T04:05:55.336Z,4.92
2023-01-25T04:08:24.667Z,4.91
2023-01-25T04:10:53.800Z,4.89
2023-01-25T04:13:22.404Z,4.90
2023-01-25T04:15:51.453Z,4.84
2023-01-25T04:18:41.099Z,4.87
2023-01-25T04:21:09.164Z,4.90
2023-01-25T04:23:36.905Z,4.86
2023-01-25T04:26:07.466Z,4.86
2023-01-25T04:28:36.535Z,4.91
2023-01-25T04:31:06.096Z,4.77
2023-01-25T04:33:40.931Z,4.87
2023-01-25T04:36:10.185Z,4.82
2023-01-25T04:38:39.410Z,4.85
2023-01-25T04:41:07.359Z,4.88
2023-01-25T04:43:35.403Z,4.83
2023-01-25T04:46:08.447Z,4.83
2023-01-25T04:48:36.260Z,4.80
2023-01-25T04:51:09.418Z,4.78
2023-01-25T04:53:37.404Z,4.77
2023-01-25T04:56:08.206Z,4.63
2023-01-25T04:58:44.948Z,4.74
2023-01-25T05:01:13.159Z,4.71
2023-01-25T05:03:40.955Z,4.64
2023-01-25T05:06:17.713Z,4.63
2023-01-25T05:08:45.837Z,4.67
2023-01-25T05:11:14.130Z,4.70
2023-01-25T05:13:51.960Z,4.69
2023-01-25T05:16:25.795Z,4.66
2023-01-25T05:18:55.759Z,4.69
2023-01-25T05:21:50.220Z,4.71
2023-01-25T05:24:21.624Z,4.71
2023-01-25T05:27:01.519Z,4.74
2023-01-25T05:29:38.717Z,4.70
2023-01-25T05:32:10.249Z,4.56
2023-01-25T05:34:39.966Z,4.69
2023-01-25T05:37:10.655Z,4.62
2023-01-25T05:39:42.324Z,4.67
2023-01-25T05:42:13.363Z,4.57
2023-01-25T05:44:41.395Z,4.61
2023-01-25T05:47:14.066Z,4.67
2023-01-25T05:49:42.310Z,4.68
2023-01-25T05:52:16.042Z,4.68
2023-01-25T05:54:44.732Z,4.68
2023-01-25T05:57:15.181Z,4.69
2023-01-25T05:59:43.194Z,4.68
2023-01-25T06:02:13.465Z,4.68
2023-01-25T06:04:42.139Z,4.64
2023-01-25T06:07:10.968Z,4.55
2023-01-25T06:09:40.320Z,4.54
2023-01-25T06:12:10.346Z,4.58
2023-01-25T06:14:38.146Z,4.50
2023-01-25T06:17:06.099Z,4.55
2023-01-25T06:19:56.243Z,4.56
2023-01-25T06:22:37.772Z,4.58
2023-01-25T06:25:08.413Z,4.58
2023-01-25T06:27:36.286Z,4.63
2023-01-25T06:30:04.434Z,4.62
2023-01-25T06:32:33.468Z,4.64
2023-01-25T06:35:01.247Z,4.64
2023-01-25T06:37:29.042Z,4.62
2023-01-25T06:39:57.035Z,4.51
2023-01-25T06:42:26.406Z,4.68
2023-01-25T06:44:54.105Z,4.67
2023-01-25T06:47:21.874Z,4.63
2023-01-25T06:49:49.576Z,4.67
2023-01-25T06:52:17.330Z,4.66
2023-01-25T06:54:45.156Z,4.67
2023-01-25T06:57:13.252Z,4.70
2023-01-25T06:59:42.626Z,4.67
2023-01-25T07:02:15.224Z,4.69
2023-01-25T07:04:43.148Z,4.65
2023-01-25T07:07:11.020Z,4.66
2023-01-25T07:09:38.818Z,4.62
2023-01-25T07:12:07.456Z,4.66
2023-01-25T07:14:35.410Z,4.67
2023-01-25T07:17:04.499Z,4.67
2023-01-25T07:19:32.419Z,4.68
2023-01-25T07:22:00.185Z,4.65
2023-01-25T07:24:29.468Z,4.67
2023-01-25T07:26:57.308Z,4.70
2023-01-25T07:29:25.241Z,4.68
2023-01-25T07:31:53.195Z,4.70
2023-01-25T07:34:22.695Z,4.71
2023-01-25T07:36:50.453Z,4.68
2023-01-25T07:39:18.281Z,4.70
2023-01-25T07:41:46.060Z,4.66
2023-01-25T07:44:15.196Z,4.66
2023-01-25T07:46:51.634Z,4.65
2023-01-25T07:49:19.669Z,4.60
2023-01-25T07:51:48.804Z,4.64
2023-01-25T07:54:16.586Z,4.68
2023-01-25T07:56:44.641Z,4.69
2023-01-25T07:59:12.449Z,4.67
2023-01-25T08:01:41.166Z,4.62
2023-01-25T08:04:09.689Z,4.72
2023-01-25T08:06:39.800Z,4.70
2023-01-25T08:09:12.032Z,4.70
2023-01-25T08:11:40.174Z,4.73
2023-01-25T08:14:08.416Z,4.72
2023-01-25T08:16:36.115Z,4.70
2023-01-25T08:19:04.722Z,4.74
2023-01-25T08:21:34.019Z,4.70
2023-01-25T08:24:03.864Z,4.69
2023-01-25T08:26:33.711Z,4.55
2023-01-25T08:29:01.483Z,4.68
2023-01-25T08:31:31.087Z,4.70
2023-01-25T08:33:59.705Z,4.69
2023-01-25T08:36:28.612Z,4.68
2023-01-25T08:38:58.315Z,4.66
2023-01-25T08:41:27.736Z,4.70
2023-01-25T08:43:57.919Z,4.69
2023-01-25T08:46:30.349Z,4.68
2023-01-25T08:49:01.043Z,4.70
2023-01-25T08:51:31.209Z,4.68
2023-01-25T08:54:02.514Z,4.65
2023-01-25T08:56:30.214Z,4.67
2023-01-25T08:58:59.318Z,4.67
2023-01-25T09:01:27.035Z,4.62
2023-01-25T09:03:55.361Z,4.56
2023-01-25T09:06:23.167Z,4.68
2023-01-25T09:08:51.243Z,4.71
2023-01-25T09:11:21.131Z,4.72
2023-01-25T09:13:49.420Z,4.73
2023-01-25T09:16:22.808Z,4.74
2023-01-25T09:18:51.232Z,4.74
2023-01-25T09:21:20.036Z,4.72
2023-01-25T09:23:51.498Z,4.75
2023-01-25T09:26:32.468Z,4.68
2023-01-25T09:29:00.702Z,4.70
2023-01-25T09:31:30.457Z,4.70
2023-01-25T09:34:14.200Z,4.67
2023-01-25T09:36:42.095Z,4.69
2023-01-25T09:39:12.115Z,4.69
2023-01-25T09:42:21.538Z,4.66
2023-01-25T09:45:04.183Z,4.58
2023-01-25T09:47:43.474Z,4.71
2023-01-25T09:50:27.989Z,4.71
2023-01-25T09:53:15.710Z,4.61
2023-01-25T09:55:44.210Z,4.59
2023-01-25T09:58:15.659Z,4.70
2023-01-25T10:00:47.949Z,4.61
2023-01-25T10:03:24.189Z,4.74
2023-01-25T10:05:54.673Z,4.74
2023-01-25T10:08:31.441Z,4.75
2023-01-25T10:11:05.783Z,4.72
2023-01-25T10:13:33.461Z,4.73
2023-01-25T10:16:06.519Z,4.72
2023-01-25T10:18:55.659Z,4.74
2023-01-25T10:21:29.409Z,4.72
2023-01-25T10:24:13.540Z,4.77
2023-01-25T10:26:48.020Z,4.64
2023-01-25T10:29:20.855Z,4.78
2023-01-25T10:31:51.360Z,4.74
2023-01-25T10:34:22.808Z,4.80
2023-01-25T10:36:55.992Z,4.79
2023-01-25T10:39:24.105Z,4.76
2023-01-25T10:41:56.994Z,4.82
2023-01-25T10:44:26.267Z,4.73
2023-01-25T10:47:00.641Z,4.76
2023-01-25T10:49:39.478Z,4.78
2023-01-25T10:52:15.288Z,4.75
2023-01-25T10:54:43.542Z,4.76
2023-01-25T10:57:18.308Z,4.68
2023-01-25T10:59:49.115Z,4.73
2023-01-25T11:02:39.067Z,4.75
2023-01-25T11:05:34.511Z,4.80
2023-01-25T11:08:23.269Z,4.74
2023-01-25T11:10:52.043Z,4.81
2023-01-25T11:13:27.106Z,4.78
2023-01-25T11:15:57.900Z,4.76
2023-01-25T11:18:28.526Z,4.62
2023-01-25T11:21:07.280Z,4.77
2023-01-25T11:23:35.300Z,4.77
2023-01-25T11:26:14.722Z,4.78
2023-01-25T11:28:42.867Z,4.72
2023-01-25T11:31:16.276Z,4.82
2023-01-25T11:33:44.100Z,4.77
2023-01-25T11:36:27.921Z,4.83
2023-01-25T11:39:25.351Z,4.81
2023-01-25T11:42:04.362Z,4.77
2023-01-25T11:45:03.578Z,4.80
2023-01-25T11:47:46.087Z,4.79
2023-01-25T11:50:21.224Z,4.82
2023-01-25T11:53:04.258Z,4.86
2023-01-25T11:55:38.904Z,4.87
2023-01-25T11:58:32.160Z,4.88
2023-01-25T12:01:11.926Z,4.82
2023-01-25T12:04:07.030Z,4.78
2023-01-25T12:06:48.244Z,4.78
2023-01-25T12:09:27.015Z,4.82
2023-01-25T12:12:08.686Z,4.86
2023-01-25T12:14:55.956Z,4.80
2023-01-25T12:17:34.528Z,4.82
2023-01-25T12:20:23.321Z,4.80
2023-01-25T12:23:06.918Z,4.81
2023-01-25T12:25:49.032Z,4.81
2023-01-25T12:28:23.991Z,4.76
2023-01-25T12:30:55.723Z,4.78
2023-01-25T12:33:30.370Z,4.77
2023-01-25T12:36:05.528Z,4.73
2023-01-25T12:38:38.711Z,4.80
2023-01-25T12:41:18.348Z,4.79
2023-01-25T12:43:50.412Z,4.78
2023-01-25T12:46:27.063Z,4.83
2023-01-25T12:49:00.408Z,4.81
2023-01-25T12:51:37.332Z,4.77
2023-01-25T12:54:12.861Z,4.76
2023-01-25T12:56:47.913Z,4.74
2023-01-25T12:59:22.108Z,4.74
2023-01-25T13:01:54.752Z,4.77
2023-01-25T13:04:37.987Z,4.57
2023-01-25T13:07:16.760Z,4.80
2023-01-25T13:09:53.103Z,4.82
2023-01-25T13:12:23.770Z,4.79
2023-01-25T13:14:51.924Z,4.63
2023-01-25T13:17:31.234Z,4.75
2023-01-25T13:20:00.081Z,4.77
2023-01-25T13:22:58.881Z,4.77
2023-01-25T13:25:27.520Z,4.79
2023-01-25T13:28:45.084Z,4.73
2023-01-25T13:31:53.363Z,4.80
2023-01-25T13:34:54.661Z,4.80
2023-01-25T13:37:25.572Z,4.77
2023-01-25T13:39:54.795Z,4.79
2023-01-25T13:42:25.353Z,4.74
2023-01-25T13:44:56.848Z,4.72
2023-01-25T13:47:28.167Z,4.64
2023-01-25T13:50:01.470Z,4.71
2023-01-25T13:52:32.284Z,4.73
2023-01-25T13:55:00.703Z,4.65
2023-01-25T13:57:30.824Z,4.65
2023-01-25T14:00:10.633Z,4.63
2023-01-25T14:02:40.703Z,4.68
2023-01-25T14:05:19.491Z,4.62
2023-01-25T14:07:50.084Z,4.64
2023-01-25T14:10:23.420Z,4.67
2023-01-25T14:12:52.997Z,4.58
2023-01-25T14:15:24.898Z,4.62
2023-01-25T14:18:12.252Z,4.65
2023-01-25T14:20:40.049Z,4.67
2023-01-25T14:23:21.881Z,4.74
2023-01-25T14:25:49.930Z,4.68
2023-01-25T14:28:19.101Z,4.72
2023-01-25T14:30:51.806Z,4.77
2023-01-25T14:33:22.348Z,4.74
2023-01-25T14:35:56.489Z,4.77
2023-01-25T14:38:35.949Z,4.67
2023-01-25T14:41:13.113Z,4.51
2023-01-25T14:43:43.384Z,4.35
2023-01-25T14:46:23.802Z,4.40
2023-01-25T14:48:52.807Z,4.55
2023-01-25T14:51:27.624Z,4.62
2023-01-25T14:54:01.540Z,4.56
2023-01-25T14:56:37.661Z,4.64
2023-01-25T14:59:07.284Z,4.66
2023-01-25T15:01:41.195Z,4.69
2023-01-25T15:04:13.973Z,4.64
2023-01-25T15:06:49.723Z,4.65
2023-01-25T15:09:38.972Z,4.58
2023-01-25T15:12:25.321Z,4.64
2023-01-25T15:14:55.280Z,4.64
2023-01-25T15:17:45.576Z,4.57
2023-01-25T15:20:37.879Z,4.60
2023-01-25T15:23:24.686Z,4.58
2023-01-25T15:25:56.855Z,4.59
2023-01-25T15:28:27.091Z,4.57
2023-01-25T15:30:57.562Z,4.53
2023-01-25T15:33:28.976Z,4.59
2023-01-25T15:35:57.508Z,4.59
2023-01-25T15:38:25.602Z,4.57
2023-01-25T15:40:53.539Z,4.58
2023-01-25T15:43:21.672Z,4.48
2023-01-25T15:45:51.744Z,4.54
2023-01-25T15:48:27.372Z,4.52
2023-01-25T15:50:57.474Z,4.48
2023-01-25T15:53:25.957Z,4.40
2023-01-25T15:55:56.878Z,4.40
2023-01-25T15:58:28.578Z,4.46
2023-01-25T16:00:56.420Z,4.50
2023-01-25T16:03:24.830Z,4.42
2023-01-25T16:05:58.220Z,4.39
2023-01-25T16:08:29.105Z,4.44
2023-01-25T16:10:57.090Z,4.41
2023-01-25T16:13:24.940Z,4.46
2023-01-25T16:15:57.869Z,4.47
2023-01-25T16:18:25.580Z,4.45
2023-01-25T16:20:53.391Z,4.38
2023-01-25T16:23:22.459Z,4.43
2023-01-25T16:25:53.343Z,4.41
2023-01-25T16:28:21.057Z,4.46
2023-01-25T16:30:49.807Z,4.52
2023-01-25T16:33:17.518Z,4.34
2023-01-25T16:35:45.206Z,4.30
2023-01-25T16:38:13.281Z,4.27
2023-01-25T16:40:42.449Z,4.44
2023-01-25T16:43:10.200Z,4.40
2023-01-25T16:45:39.783Z,4.31
2023-01-25T16:48:08.247Z,4.29
2023-01-25T16:50:35.987Z,4.24
2023-01-25T16:53:03.767Z,4.29
2023-01-25T16:55:31.503Z,4.37
2023-01-25T16:58:00.511Z,4.31
2023-01-25T17:00:28.188Z,4.29
2023-01-25T17:02:59.845Z,4.23
2023-01-25T17:05:31.991Z,4.17
2023-01-25T17:07:59.762Z,4.18
2023-01-25T17:10:28.890Z,4.27
2023-01-25T17:12:56.599Z,4.34
2023-01-25T17:15:25.762Z,4.31
2023-01-25T17:17:53.445Z,4.28
2023-01-25T17:20:21.187Z,4.26
2023-01-25T17:22:51.087Z,4.26
2023-01-25T17:25:19.138Z,4.31
2023-01-25T17:27:47.024Z,4.12
2023-01-25T17:30:15.510Z,4.18
2023-01-25T17:32:44.753Z,4.17
2023-01-25T17:35:12.507Z,4.21
2023-01-25T17:37:41.116Z,4.23
2023-01-25T17:40:11.285Z,4.29
2023-01-25T17:42:39.319Z,4.23
2023-01-25T17:45:08.620Z,4.28
2023-01-25T17:47:36.658Z,4.27
2023-01-25T17:50:06.813Z,4.32
2023-01-25T17:52:34.671Z,4.29
2023-01-25T17:55:02.513Z,4.32
2023-01-25T17:57:31.413Z,4.24
2023-01-25T18:00:00.711Z,4.15
2023-01-25T18:02:28.382Z,4.14
2023-01-25T18:04:57.779Z,4.17
2023-01-25T18:07:26.825Z,4.15
2023-01-25T18:09:54.486Z,4.23
2023-01-25T18:12:22.185Z,4.25
2023-01-25T18:14:49.858Z,4.13
2023-01-25T18:17:18.607Z,4.23
2023-01-25T18:19:46.688Z,4.23
2023-01-25T18:22:14.666Z,4.19
2023-01-25T18:24:44.737Z,4.21
2023-01-25T18:27:19.273Z,4.21
2023-01-25T18:29:50.715Z,4.18
2023-01-25T18:32:18.500Z,4.09
2023-01-25T18:34:46.808Z,4.00
2023-01-25T18:37:21.778Z,3.92
2023-01-25T18:39:52.381Z,4.00
2023-01-25T18:42:21.546Z,4.01
2023-01-25T18:44:49.328Z,3.98
2023-01-25T18:47:18.563Z,3.92
2023-01-25T18:49:46.750Z,3.98
2023-01-25T18:52:16.035Z,4.01
2023-01-25T18:54:44.054Z,3.97
2023-01-25T18:57:13.797Z,3.86
2023-01-25T18:59:42.217Z,3.97
2023-01-25T19:02:12.658Z,4.01
2023-01-25T19:04:40.570Z,3.91
2023-01-25T19:07:08.605Z,3.91
2023-01-25T19:09:36.388Z,4.00
2023-01-25T19:12:04.656Z,3.91
2023-01-25T19:14:33.752Z,3.96
2023-01-25T19:17:01.806Z,3.99
2023-01-25T19:19:33.823Z,3.97
2023-01-25T19:22:02.298Z,3.81
2023-01-25T19:24:31.076Z,3.77
2023-01-25T19:26:59.017Z,3.86
2023-01-25T19:29:26.846Z,3.75
2023-01-25T19:31:56.173Z,3.71
2023-01-25T19:34:24.115Z,3.70
2023-01-25T19:36:53.809Z,3.77
2023-01-25T19:39:21.784Z,3.84
2023-01-25T19:41:52.823Z,3.85
2023-01-25T19:44:20.720Z,3.87
2023-01-25T19:46:48.620Z,3.91
2023-01-25T19:49:18.172Z,3.93
2023-01-25T19:51:52.774Z,3.87
2023-01-25T19:54:21.565Z,3.87
2023-01-25T19:56:50.076Z,3.87
2023-01-25T19:59:19.945Z,3.82
2023-01-25T20:01:48.103Z,3.75
2023-01-25T20:04:20.621Z,3.72
2023-01-25T20:06:48.925Z,3.65
2023-01-25T20:09:18.730Z,3.74
2023-01-25T20:11:47.190Z,3.76
2023-01-25T20:14:15.394Z,3.69
2023-01-25T20:16:43.642Z,3.73
2023-01-25T20:19:12.516Z,3.65
2023-01-25T20:21:42.027Z,3.68
2023-01-25T20:24:10.821Z,3.50
2023-01-25T20:26:42.665Z,3.56
2023-01-25T20:29:12.221Z,3.67
2023-01-25T20:31:41.950Z,3.52
2023-01-25T20:34:12.726Z,3.45
2023-01-25T20:36:42.462Z,3.42
2023-01-25T20:39:12.959Z,3.31
2023-01-25T20:41:40.765Z,3.27
2023-01-25T20:44:09.989Z,3.36
2023-01-25T20:46:38.849Z,3.38
2023-01-25T20:49:07.620Z,3.25
2023-01-25T20:51:35.473Z,3.32
2023-01-25T20:54:04.749Z,3.41
2023-01-25T20:56:32.705Z,3.45
2023-01-25T20:59:00.428Z,3.33
2023-01-25T21:01:30.468Z,3.39
2023-01-25T21:03:59.140Z,3.33
2023-01-25T21:06:28.721Z,3.35
2023-01-25T21:08:56.450Z,3.39
2023-01-25T21:11:25.975Z,3.41
2023-01-25T21:13:54.900Z,3.44
2023-01-25T21:16:23.858Z,3.46
2023-01-25T21:18:54.506Z,3.56
2023-01-25T21:21:25.661Z,3.48
2023-01-25T21:23:54.577Z,3.51
2023-01-25T21:26:26.512Z,3.53
2023-01-25T21:28:55.552Z,3.48
2023-01-25T21:31:25.436Z,3.48
2023-01-25T21:33:53.591Z,3.51
2023-01-25T21:36:21.933Z,3.51
2023-01-25T21:38:51.370Z,3.45
2023-01-25T21:41:20.773Z,3.43
2023-01-25T21:44:07.753Z,3.45
2023-01-25T21:46:36.165Z,3.46
2023-01-25T21:49:23.602Z,3.47
2023-01-25T21:51:53.374Z,3.53
2023-01-25T21:54:22.890Z,3.57
2023-01-25T21:56:52.402Z,3.58
2023-01-25T21:59:21.963Z,3.59
2023-01-25T22:01:50.535Z,3.53
2023-01-25T22:04:19.894Z,3.59
2023-01-25T22:06:48.604Z,3.60
2023-01-25T22:09:16.600Z,3.59
2023-01-25T22:11:45.831Z,3.52
2023-01-25T22:14:13.629Z,3.48
2023-01-25T22:16:42.842Z,3.47
2023-01-25T22:19:10.623Z,3.53
2023-01-25T22:21:38.545Z,3.50
2023-01-25T22:24:07.753Z,3.35
2023-01-25T22:26:47.514Z,3.37
2023-01-25T22:29:15.962Z,3.46
2023-01-25T22:31:45.122Z,3.46
2023-01-25T22:34:12.871Z,3.46
2023-01-25T22:36:40.554Z,3.48
2023-01-25T22:39:08.394Z,3.41
2023-01-25T22:41:38.349Z,3.45
2023-01-25T22:44:06.192Z,3.43
2023-01-25T22:46:34.597Z,3.48
2023-01-25T22:49:04.733Z,3.47
2023-01-25T22:51:32.817Z,3.51
2023-01-25T22:54:00.740Z,3.45
2023-01-25T22:56:31.728Z,3.45
2023-01-25T22:59:00.198Z,3.49
2023-01-25T23:01:29.580Z,3.45
2023-01-25T23:03:57.360Z,3.49
2023-01-25T23:06:28.258Z,3.47
2023-01-25T23:08:57.000Z,3.49
2023-01-25T23:11:25.847Z,3.49
2023-01-25T23:14:07.920Z,3.46
2023-01-25T23:16:36.390Z,3.47
2023-01-25T23:19:05.031Z,3.47
2023-01-25T23:21:35.727Z,3.48
2023-01-25T23:24:04.233Z,3.44
2023-01-25T23:26:37.499Z,3.49
2023-01-25T23:29:07.482Z,3.47
2023-01-25T23:31:35.271Z,3.44
2023-01-25T23:34:05.317Z,3.42
2023-01-25T23:36:35.704Z,3.42
2023-01-25T23:39:04.255Z,3.41
2023-01-25T23:41:32.567Z,3.45
2023-01-25T23:44:00.844Z,3.41
2023-01-25T23:46:29.117Z,3.41
2023-01-25T23:48:56.880Z,3.38
2023-01-25T23:51:24.614Z,3.36
2023-01-25T23:53:55.707Z,3.39
2023-01-25T23:56:23.465Z,3.31
2023-01-25T23:58:51.573Z,3.34
